Main page
METAR-TAF:

METAR-TAF

Airports :

Girona–Costa Brava Airport

Girona, Spain

latitude: 41-54N, longitude: 002-46E, elevation: 143 m

Current weather observation

The report was made 34 minutes ago, at 23:30 UTC
Calm wind
Temperature 19°C
Humidity 88%
Pressure 1017 hPa
Visibility 10 km or more
no clouds below 1500 m and no cumulonimbus

METAR: LEGE 052330Z 00000KT CAVOK 19/17 Q1017

Time: 02:04 (00:04 UTC)

Forecast

The report was made 1 hour and 4 minutes ago, at 23:00 UTC
Forecast valid from 06 at 00 UTC to 06 at 24 UTC
Wind 3 kt from variable directions
Visibility 10 km or more
Few clouds at a height of 2500 ft
Becoming
from 06 at 10 UTC to 06 at 12 UTC
Wind 10 kt from the South
Becoming
from 06 at 18 UTC to 06 at 20 UTC
Wind 3 kt from variable directions

TAF: LEGE 052300Z 0600/0624 VRB03KT 9999 FEW025 TX32/0613Z TN19/0606Z BECMG 0610/0612 18010KT BECMG 0618/0620 VRB03KT

Weather observations and forecasts of more than 4000 airports (METAR and TAF reports).

The available stations are represented by yellow and red dots on the map.

Hover mouse over dot to see the name of the station.

Then click to see weather observations and forecasts.

To change the map : click on the green buttons with a black cross to zoom in, on the green button with a dash to zoom out, or on the green arrows for adjacent maps.


METAR-TAF: